Equality — ODTX — position and weather

sailwx.info

Track history (hours):
 
Tides and Currents Weather Stations Pressure Air Temp Water Temp Dewpoint Dewpoint Depression Visibility Wind Speed Wind Dir Waves Ship Positions

Equality

Last reported at 2017-Feb-20 05:33 UTC. Time now 2017-Feb-23 07:08 UTC.
Position N 37°31' W 000°58'.

Length 124 m; draft 4.7 m.

Type: Cargo ship. MMSI: 450501000.

Date/timePositionNaut miles runAvg speedWind from/ knotsBaromVisibWave heightAir tempDewpointWater temp
2017-Feb-20 05:33N 37°31' W 000°58'8 7.7
2017-Feb-20 04:33N 37°30' W 000°49'11 7.7
2017-Feb-20 03:04N 37°30' W 000°34'  
2017-Feb-16 21:30N 36°39' E 013°48'8 8.8
2017-Feb-16 20:33N 36°36' E 013°58'12 9.0
2017-Feb-16 19:15N 36°32' E 014°12'7 9.1
2017-Feb-16 18:29N 36°30' E 014°20'8 9.1
2017-Feb-16 17:33N 36°27' E 014°30'9 9.3
2017-Feb-16 16:33N 36°23' E 014°40'  
Track history (hours):
 
Tides and Currents Weather Stations Pressure Air Temp Water Temp Dewpoint Dewpoint Depression Visibility Wind Speed Wind Dir Waves Ship Positions

Equality

Last reported at 2017-Feb-20 05:33 UTC. Time now 2017-Feb-23 07:08 UTC.
Position N 37°31' W 000°58'.

Length 124 m; draft 4.7 m.

Type: Cargo ship. MMSI: 450501000.

Date/timePositionNaut miles runAvg speedWind from/ knotsBaromVisibWave heightAir tempDewpointWater temp
2017-Feb-20 05:33N 37°31' W 000°58'8 7.7
2017-Feb-20 04:33N 37°30' W 000°49'11 7.7
2017-Feb-20 03:04N 37°30' W 000°34'  
2017-Feb-16 21:30N 36°39' E 013°48'8 8.8
2017-Feb-16 20:33N 36°36' E 013°58'12 9.0
2017-Feb-16 19:15N 36°32' E 014°12'7 9.1
2017-Feb-16 18:29N 36°30' E 014°20'8 9.1
2017-Feb-16 17:33N 36°27' E 014°30'9 9.3
2017-Feb-16 16:33N 36°23' E 014°40'  

Dump ship's entire track history